Gumushane, Turkey

7:28 PM EEST on July 31, 2014 (GMT +0300)
Erzincan (LTCD) Elev 3786 ft | 39.71 °N, 39.53 °E | Change Station

Current weather conditions updated 38 minutes ago

Clear
Clear
88 °F
Feels Like 88 °F
N
10
Wind Variable Wind from North

Tomorrow is forecast to be Much Cooler than today.

Today
High -- | Low -- °F
--% Chance of Precip.
Yesterday
High -- | Low -- °F
Precip. -- in
5:18 AM 7:38 PM
Waxing Crescent, 19% visible
Pressure 29.80 in
Visibility -9999.0 miles
Clouds
Dew Point 32 °F
Humidity 14%
Rainfall 0.00 in
Snow Depth Not available.
UV Not available.
Pollen Not available.
Air Quality Not available.
Flu Activity Not available.
METAR LTCD 311550Z 35009KT CAVOK 31/M00 Q1009 NOSIG

More Conditions Fewer Conditions

Pressure 29.80 in
Visibility -9999.0 miles
Clouds
Dew Point 32 °F
Humidity 14%
Rainfall 0.00 in
Snow Depth Not available.
UV Not available.
Pollen Not available.
Air Quality Not available.
Flu Activity Not available.
METAR LTCD 311550Z 35009KT CAVOK 31/M00 Q1009 NOSIG

More Conditions Fewer Conditions

10-Day Weather Forecast

Almanac

Astronomy

Jul. 31, 2014 Rise Set
Actual Time 5:18 AM EEST 7:38 PM EEST
Civil Twilight 4:47 AM EEST 8:08 PM EEST
Nautical Twilight 4:09 AM EEST 8:46 PM EEST
Astronomical Twilight 3:27 AM EEST 9:28 PM EEST
Moon 9:26 AM EEST 9:39 PM EEST
Length of Visible Light 15h 21m
Length of Day
14h 20m
Tomorrow will be 1m 59s shorter.
Waxing Crescent, 19% of the Moon is Illuminated
Today
Waxing Crescent
Aug 3
First Quarter
Aug 10
Full
Aug 17
Last Quarter
Aug 25
New

Today's Extremes

Country Highs Country Lows

Community

WunderPhotos

Upload Photos

1,739,367 photos uploaded!

WunderBlogs® & News

By Dr. Jeff Masters
Director of Meteorology, Weather Underground
By Kari Strenfel
Meteorologist, Weather Underground
By Christopher C. Burt
Weather Historian, Weather Underground
July 31, 2014
July 31, 2014
July 31, 2014

Nearby

Snow Depth

Not available.

Earthquake Activity

City Distance Mag. Time & Date
No recent earthquake activity has been reported nearby.
Minimum magnitude displayed is 2.5.

Coastal Water Temperatures

Place Temperature
No Stations Reporting

Nearby Weather Stations

There are no personal weather stations in this area.